Time;durP1;ratioP1;P1;durP2;ratioP2;P2;SDS_P1;SDS_P2;PMS_P1;PMS_P2;Temp;Humidity;BMP_temperature;BMP_pressure;BME280_temperature;BME280_humidity;BME280_pressure;Samples;Min_cycle;Max_cycle;Signal;HPM_P1;HPM_P2
2021/12/02 00:00:51;;;;;;;5.78;1.38;;;4.30;99.90;;;;;;4985418;28;20086;-81
2021/12/02 00:03:17;;;;;;;10.52;1.63;;;4.20;99.90;;;;;;4967251;28;20049;-81
2021/12/02 00:05:43;;;;;;;7.97;2.15;;;4.20;99.90;;;;;;4966443;28;20033;-80
2021/12/02 00:08:09;;;;;;;9.43;1.63;;;4.20;99.90;;;;;;4971744;28;20030;-81
2021/12/02 00:10:35;;;;;;;9.88;1.83;;;4.30;99.90;;;;;;4999980;28;20048;-81
2021/12/02 00:13:01;;;;;;;6.03;1.67;;;4.20;99.90;;;;;;4986926;28;20381;-81
2021/12/02 00:15:39;;;;;;;11.63;1.80;;;4.20;99.90;;;;;;4986898;28;20034;-81
2021/12/02 00:23:34;;;;;;;14.48;2.47;;;4.10;99.90;;;;;;5004990;28;20064;-82
2021/12/02 00:26:02;;;;;;;4.55;1.50;;;4.20;99.90;;;;;;4974342;28;20057;-81
2021/12/02 00:28:28;;;;;;;9.48;1.30;;;4.20;99.90;;;;;;4981942;28;20104;-81
2021/12/02 00:30:55;;;;;;;11.02;1.70;;;4.20;99.90;;;;;;4985262;28;20037;-80
2021/12/02 00:33:21;;;;;;;3.90;1.23;;;4.20;99.90;;;;;;5005381;28;20421;-81
2021/12/02 00:35:47;;;;;;;7.25;1.27;;;4.20;99.90;;;;;;5001796;28;20029;-81
2021/12/02 00:38:12;;;;;;;4.28;1.10;;;4.20;99.90;;;;;;4972562;28;20032;-80
2021/12/02 00:40:38;;;;;;;8.70;0.80;;;4.20;99.90;;;;;;4964856;28;20045;-81
2021/12/02 00:43:03;;;;;;;8.73;1.30;;;4.20;99.90;;;;;;4979388;28;20049;-81
2021/12/02 00:45:29;;;;;;;6.60;1.23;;;4.20;99.90;;;;;;4988441;28;20497;-81
2021/12/02 00:47:54;;;;;;;8.13;1.67;;;4.30;99.90;;;;;;4968101;28;20027;-81
2021/12/02 00:50:20;;;;;;;6.47;1.40;;;4.20;99.90;;;;;;4986914;28;20044;-80
2021/12/02 00:52:46;;;;;;;9.70;1.75;;;4.20;99.90;;;;;;4985359;28;20033;-80
2021/12/02 00:55:11;;;;;;;12.50;1.70;;;4.20;99.90;;;;;;5002170;28;20234;-81
2021/12/02 00:57:40;;;;;;;4.82;0.82;;;4.30;99.90;;;;;;5002586;28;20068;-81
2021/12/02 01:00:06;;;;;;;17.55;1.02;;;4.20;99.90;;;;;;4969478;28;20521;-81
2021/12/02 01:02:32;;;;;;;7.80;1.67;;;4.20;99.90;;;;;;4999298;28;20029;-81
2021/12/02 01:04:59;;;;;;;12.13;1.98;;;4.30;99.90;;;;;;4980901;28;20079;-81
2021/12/02 01:07:24;;;;;;;9.55;1.67;;;4.30;99.90;;;;;;4962050;28;20112;-81
2021/12/02 01:09:50;;;;;;;17.38;2.05;;;4.20;99.90;;;;;;5002650;28;20061;-81
2021/12/02 01:12:17;;;;;;;7.32;2.65;;;4.30;99.90;;;;;;4985875;28;20079;-81
2021/12/02 01:14:44;;;;;;;6.07;1.10;;;4.30;99.90;;;;;;4971003;28;20309;-81
2021/12/02 01:17:09;;;;;;;8.50;1.58;;;4.30;99.90;;;;;;4980232;28;20036;-81
2021/12/02 01:19:35;;;;;;;10.38;1.67;;;4.30;99.90;;;;;;4970511;28;20045;-81
2021/12/02 01:22:01;;;;;;;11.50;2.13;;;4.30;99.90;;;;;;4997317;28;20033;-81
2021/12/02 01:24:26;;;;;;;6.47;1.35;;;4.30;99.90;;;;;;4987741;28;20163;-81
2021/12/02 01:26:53;;;;;;;4.90;0.88;;;4.30;99.90;;;;;;4984935;28;20477;-81
2021/12/02 01:29:20;;;;;;;12.60;1.60;;;4.30;99.90;;;;;;4966358;28;20439;-80
2021/12/02 01:31:48;;;;;;;10.27;2.88;;;4.30;99.90;;;;;;5001849;28;20030;-80
2021/12/02 01:34:13;;;;;;;11.80;2.05;;;4.30;99.90;;;;;;4968560;28;20093;-80
2021/12/02 01:36:40;;;;;;;7.40;1.95;;;4.30;99.90;;;;;;4985962;28;20481;-81
2021/12/02 01:39:06;;;;;;;8.55;1.20;;;4.30;99.90;;;;;;4986380;28;20123;-81
2021/12/02 01:41:37;;;;;;;11.40;1.20;;;4.30;99.90;;;;;;5002292;28;20574;-81
2021/12/02 01:44:03;;;;;;;5.60;1.45;;;4.30;99.90;;;;;;4997904;28;20034;-81
2021/12/02 01:46:31;;;;;;;7.07;2.47;;;4.30;99.90;;;;;;4985285;28;20548;-80
2021/12/02 01:49:06;;;;;;;3.13;1.23;;;4.30;99.90;;;;;;5002626;28;20761;-81
2021/12/02 01:51:37;;;;;;;10.43;2.53;;;4.30;99.90;;;;;;4982549;28;20287;-81
2021/12/02 01:54:06;;;;;;;6.88;1.70;;;4.30;99.90;;;;;;4960519;28;20076;-81
2021/12/02 01:56:33;;;;;;;9.63;2.10;;;4.30;99.90;;;;;;4986404;28;20037;-81
2021/12/02 01:59:06;;;;;;;4.53;1.08;;;4.30;99.90;;;;;;5003662;28;20425;-81
2021/12/02 02:01:31;;;;;;;3.47;1.13;;;4.30;99.90;;;;;;4979668;28;20104;-80
2021/12/02 02:03:57;;;;;;;11.15;2.60;;;4.30;99.90;;;;;;4971458;28;20490;-80
2021/12/02 02:06:31;;;;;;;10.07;2.22;;;4.30;99.90;;;;;;4998866;28;20037;-81
2021/12/02 02:08:58;;;;;;;9.27;1.67;;;4.30;99.90;;;;;;4983764;28;20571;-81
2021/12/02 02:11:27;;;;;;;4.32;1.13;;;4.30;99.90;;;;;;4983839;28;20030;-80
2021/12/02 02:13:52;;;;;;;6.40;2.05;;;4.30;99.90;;;;;;5000870;28;20437;-80
2021/12/02 02:16:18;;;;;;;11.88;1.70;;;4.20;99.90;;;;;;4984976;28;20105;-80
2021/12/02 02:18:43;;;;;;;2.80;2.08;;;4.30;99.90;;;;;;4984249;28;20539;-81
2021/12/02 02:21:12;;;;;;;10.40;2.50;;;4.20;99.90;;;;;;4972888;28;20040;-81
2021/12/02 02:23:42;;;;;;;8.70;1.88;;;4.20;99.90;;;;;;4973469;28;20068;-80
2021/12/02 02:26:08;;;;;;;8.38;1.83;;;4.20;99.90;;;;;;4983440;28;20033;-80
2021/12/02 02:28:34;;;;;;;6.70;1.65;;;4.20;99.90;;;;;;5006225;28;20030;-80
2021/12/02 02:31:00;;;;;;;9.20;2.53;;;4.30;99.90;;;;;;4971572;28;20026;-80
2021/12/02 02:33:33;;;;;;;14.25;2.53;;;4.20;99.90;;;;;;5001505;28;20448;-81
2021/12/02 02:35:59;;;;;;;9.65;2.03;;;4.20;99.90;;;;;;4987908;28;20029;-80
2021/12/02 02:38:24;;;;;;;6.80;2.05;;;4.20;99.90;;;;;;4973568;28;20406;-81
2021/12/02 02:40:50;;;;;;;8.60;2.10;;;4.20;99.90;;;;;;4968668;28;20092;-80
2021/12/02 02:43:23;;;;;;;8.88;2.28;;;4.20;99.90;;;;;;4990414;28;20701;-81
2021/12/02 02:45:49;;;;;;;7.70;2.00;;;4.20;99.90;;;;;;4972086;28;20453;-80
2021/12/02 02:48:15;;;;;;;7.95;1.58;;;4.20;99.90;;;;;;4983797;28;20041;-81
2021/12/02 02:50:40;;;;;;;7.43;2.13;;;4.20;99.90;;;;;;4965884;28;20072;-81
2021/12/02 02:53:17;;;;;;;8.98;1.70;;;4.20;99.90;;;;;;5005773;28;20029;-81
2021/12/02 02:55:47;;;;;;;9.13;2.50;;;4.20;99.90;;;;;;5005690;28;20033;-81
2021/12/02 02:58:27;;;;;;;10.05;2.20;;;4.20;99.90;;;;;;4985440;28;20178;-81
2021/12/02 03:01:16;;;;;;;10.23;2.55;;;4.10;99.90;;;;;;5006633;28;20029;-81
2021/12/02 03:03:53;;;;;;;7.75;1.67;;;4.10;99.90;;;;;;4989418;28;20076;-80
2021/12/02 03:06:38;;;;;;;5.38;1.45;;;4.00;99.90;;;;;;4989438;28;20109;-81
2021/12/02 03:09:12;;;;;;;11.82;2.08;;;4.10;99.90;;;;;;4975930;28;20033;-81
2021/12/02 03:11:43;;;;;;;4.95;2.47;;;4.10;99.90;;;;;;4993850;28;20033;-81
2021/12/02 03:14:13;;;;;;;4.57;1.80;;;4.00;99.90;;;;;;4999676;28;20478;-81
2021/12/02 03:19:04;;;;;;;8.98;1.65;;;4.00;99.90;;;;;;5006352;28;20041;-81
2021/12/02 03:21:30;;;;;;;9.38;2.30;;;4.10;99.90;;;;;;4971597;28;20030;-81
2021/12/02 03:24:00;;;;;;;11.18;2.47;;;4.10;99.90;;;;;;5005468;28;20099;-81
2021/12/02 03:26:26;;;;;;;11.20;4.13;;;4.00;99.90;;;;;;5005953;28;20032;-81
2021/12/02 03:28:52;;;;;;;8.38;2.58;;;4.10;99.90;;;;;;4967974;28;20046;-80
2021/12/02 03:31:17;;;;;;;4.65;2.33;;;4.00;99.90;;;;;;4970809;28;20026;-83
2021/12/02 03:33:43;;;;;;;7.22;2.20;;;4.00;99.90;;;;;;4969464;28;20061;-83
2021/12/02 03:36:09;;;;;;;5.80;2.10;;;4.10;99.90;;;;;;4973954;28;20022;-84
2021/12/02 03:38:35;;;;;;;6.18;2.08;;;4.10;99.90;;;;;;4988306;28;20033;-83
2021/12/02 03:41:00;;;;;;;10.30;2.20;;;4.10;99.90;;;;;;4981916;28;20021;-83
2021/12/02 03:43:27;;;;;;;10.15;2.15;;;4.10;99.90;;;;;;4992645;28;20038;-83
2021/12/02 03:45:53;;;;;;;6.32;1.48;;;4.20;99.90;;;;;;4985531;28;20037;-83
2021/12/02 03:48:19;;;;;;;9.25;2.25;;;4.10;99.90;;;;;;4986319;28;20030;-83
2021/12/02 03:50:44;;;;;;;12.20;2.33;;;4.10;99.90;;;;;;4968204;28;20139;-83
2021/12/02 03:53:10;;;;;;;6.97;1.95;;;4.10;99.90;;;;;;5002256;28;20475;-83
2021/12/02 03:55:35;;;;;;;7.80;2.05;;;4.10;99.90;;;;;;4989789;28;20029;-82
2021/12/02 03:58:01;;;;;;;5.13;2.35;;;4.10;99.90;;;;;;4987188;28;20528;-82
2021/12/02 04:00:26;;;;;;;7.78;2.25;;;4.10;99.90;;;;;;4969598;28;20445;-82
2021/12/02 04:02:52;;;;;;;6.72;2.28;;;4.20;99.90;;;;;;4973271;28;20547;-82
2021/12/02 04:05:17;;;;;;;8.90;2.65;;;4.00;99.90;;;;;;5001980;28;20074;-82
2021/12/02 04:07:43;;;;;;;12.60;2.88;;;4.00;99.90;;;;;;4969843;28;20059;-82
2021/12/02 04:10:09;;;;;;;4.20;2.40;;;4.00;99.90;;;;;;4986140;28;20397;-82
2021/12/02 04:15:55;;;;;;;5.35;2.15;;;4.10;99.90;;;;;;5006949;28;20121;-82
2021/12/02 04:18:09;;;;;;;4.15;2.28;;;4.10;99.90;;;;;;5004735;28;20090;-82
2021/12/02 04:20:37;;;;;;;7.25;3.08;;;4.20;99.90;;;;;;4966033;28;20068;-82
2021/12/02 04:23:02;;;;;;;6.28;1.83;;;4.10;99.90;;;;;;5000254;28;20029;-82
2021/12/02 04:25:28;;;;;;;10.15;2.97;;;4.10;99.90;;;;;;4980349;28;20595;-82
2021/12/02 04:27:53;;;;;;;4.25;2.20;;;4.10;99.90;;;;;;4968152;28;20044;-82
2021/12/02 04:30:23;;;;;;;9.70;2.83;;;4.00;99.90;;;;;;4987756;28;20036;-82
2021/12/02 04:32:48;;;;;;;5.15;3.08;;;4.00;99.90;;;;;;5000383;28;20477;-82
2021/12/02 04:35:14;;;;;;;10.88;1.55;;;4.00;99.90;;;;;;4971047;28;20040;-82
2021/12/02 04:37:40;;;;;;;7.60;3.50;;;3.90;99.90;;;;;;4970095;28;20923;-84
2021/12/02 04:40:06;;;;;;;8.38;4.00;;;3.90;99.90;;;;;;4966428;28;20030;-82
2021/12/02 04:42:32;;;;;;;7.38;4.10;;;3.80;99.90;;;;;;4987791;28;20037;-82
2021/12/02 04:44:57;;;;;;;9.18;3.47;;;3.80;99.90;;;;;;4971836;28;20029;-82
2021/12/02 04:47:23;;;;;;;11.40;4.60;;;3.90;99.90;;;;;;4984365;28;20060;-82
2021/12/02 04:49:48;;;;;;;10.55;5.18;;;3.90;99.90;;;;;;4985855;28;20047;-82
2021/12/02 04:52:14;;;;;;;12.50;4.85;;;3.80;99.90;;;;;;5003692;28;20018;-82
2021/12/02 04:54:39;;;;;;;9.90;3.72;;;3.70;99.90;;;;;;4986282;28;20049;-82
2021/12/02 04:57:05;;;;;;;8.75;3.92;;;3.70;99.90;;;;;;4967868;28;20036;-82
2021/12/02 04:59:31;;;;;;;13.27;5.70;;;3.80;99.90;;;;;;4975596;28;20040;-83
2021/12/02 05:01:56;;;;;;;5.45;3.08;;;3.90;99.90;;;;;;4965081;28;20037;-82
2021/12/02 05:04:22;;;;;;;8.98;3.88;;;3.80;99.90;;;;;;4970840;28;20045;-82
2021/12/02 05:06:47;;;;;;;9.75;3.95;;;3.80;99.90;;;;;;4967262;28;20109;-82
2021/12/02 05:09:13;;;;;;;8.70;2.67;;;3.70;99.90;;;;;;4983701;28;20429;-82
2021/12/02 05:11:38;;;;;;;12.65;3.40;;;3.70;99.90;;;;;;4979018;28;20313;-82
2021/12/02 05:14:05;;;;;;;4.95;2.58;;;3.70;99.90;;;;;;5004586;28;20501;-82
2021/12/02 05:16:31;;;;;;;4.47;2.33;;;3.70;99.90;;;;;;4989072;28;20112;-82
2021/12/02 05:18:56;;;;;;;9.60;1.92;;;3.60;99.90;;;;;;4968697;28;20120;-82
2021/12/02 05:21:22;;;;;;;5.05;2.45;;;3.60;99.90;;;;;;4999948;28;20037;-82
2021/12/02 05:23:53;;;;;;;7.78;2.40;;;3.60;99.90;;;;;;4966803;28;20037;-82
2021/12/02 05:26:18;;;;;;;9.15;2.75;;;3.60;99.90;;;;;;4979221;28;20029;-82
2021/12/02 05:28:44;;;;;;;5.40;2.25;;;3.60;99.90;;;;;;4984612;28;20444;-82
2021/12/02 05:31:10;;;;;;;4.40;1.88;;;3.60;99.90;;;;;;4979254;28;20548;-82
2021/12/02 05:33:35;;;;;;;3.67;2.00;;;3.60;99.90;;;;;;4988625;28;20417;-82
2021/12/02 05:36:01;;;;;;;8.68;2.35;;;3.60;99.90;;;;;;5004205;28;20084;-82
2021/12/02 05:38:26;;;;;;;2.03;1.40;;;3.70;99.90;;;;;;4984064;28;20025;-83
2021/12/02 05:40:52;;;;;;;2.13;1.20;;;3.70;99.90;;;;;;5002747;28;20033;-82
2021/12/02 05:43:17;;;;;;;6.07;1.92;;;3.70;99.90;;;;;;4968583;28;20021;-82
2021/12/02 05:45:43;;;;;;;6.35;1.83;;;3.70;99.90;;;;;;4988139;28;20030;-81
2021/12/02 05:48:08;;;;;;;6.15;1.80;;;3.70;99.90;;;;;;4985061;28;20037;-81
2021/12/02 05:50:34;;;;;;;2.42;1.30;;;3.70;99.90;;;;;;4982456;28;20379;-81
2021/12/02 05:52:59;;;;;;;2.78;1.90;;;3.60;99.90;;;;;;5003581;28;20067;-81
2021/12/02 05:55:25;;;;;;;6.18;2.53;;;3.60;99.90;;;;;;4992330;28;20034;-81
2021/12/02 05:57:51;;;;;;;12.30;2.25;;;3.50;99.90;;;;;;5004223;28;20040;-81
2021/12/02 06:00:17;;;;;;;14.10;2.53;;;3.60;99.90;;;;;;4976418;28;20030;-81
2021/12/02 06:02:42;;;;;;;6.88;2.75;;;3.50;99.90;;;;;;4970976;28;20136;-81
2021/12/02 06:05:15;;;;;;;1.27;1.00;;;3.40;99.90;;;;;;4989768;28;20040;-81
2021/12/02 06:07:41;;;;;;;2.60;1.73;;;3.50;99.90;;;;;;4968154;28;20030;-81
2021/12/02 06:10:07;;;;;;;6.45;1.95;;;3.50;99.90;;;;;;4978359;28;20597;-81
2021/12/02 06:12:32;;;;;;;3.17;2.22;;;3.50;99.90;;;;;;4965977;28;20041;-81
2021/12/02 06:14:58;;;;;;;5.90;2.10;;;3.50;99.90;;;;;;4971367;28;20036;-80
2021/12/02 06:17:23;;;;;;;2.63;1.98;;;3.50;99.90;;;;;;4972294;28;20072;-81
2021/12/02 06:19:49;;;;;;;4.07;2.25;;;3.30;99.90;;;;;;4971129;28;20047;-81
2021/12/02 06:22:14;;;;;;;3.15;2.08;;;3.40;99.90;;;;;;4968264;28;20477;-81
2021/12/02 06:24:44;;;;;;;4.78;2.25;;;3.30;99.90;;;;;;4968575;28;20032;-81
2021/12/02 06:27:12;;;;;;;6.78;2.75;;;3.30;99.90;;;;;;4983004;28;20088;-81
2021/12/02 06:29:38;;;;;;;6.00;2.70;;;3.30;99.90;;;;;;4981565;28;20037;-81
2021/12/02 06:32:04;;;;;;;6.40;3.08;;;3.30;99.90;;;;;;4969415;28;20498;-81
2021/12/02 06:34:31;;;;;;;4.22;2.45;;;3.30;99.90;;;;;;4971487;28;20070;-80
2021/12/02 06:36:56;;;;;;;6.45;3.70;;;3.30;99.90;;;;;;4964731;28;20107;-82
2021/12/02 06:39:22;;;;;;;8.95;3.00;;;3.40;99.90;;;;;;5005170;28;20057;-82
2021/12/02 06:41:47;;;;;;;7.50;1.63;;;3.40;99.90;;;;;;4982190;28;20121;-82
2021/12/02 06:44:13;;;;;;;9.02;4.72;;;3.30;99.90;;;;;;4971264;28;20493;-82
2021/12/02 06:46:39;;;;;;;7.57;5.28;;;3.30;99.90;;;;;;4970115;28;20033;-83
2021/12/02 06:49:05;;;;;;;4.63;3.33;;;3.30;99.90;;;;;;4971588;28;20041;-83
2021/12/02 06:51:30;;;;;;;3.38;2.50;;;3.30;99.90;;;;;;4967684;28;20033;-83
2021/12/02 06:53:56;;;;;;;10.02;5.07;;;3.40;99.90;;;;;;4991026;28;20022;-83
2021/12/02 06:56:22;;;;;;;8.35;4.85;;;3.40;99.90;;;;;;4973880;28;20037;-83
2021/12/02 06:58:47;;;;;;;9.05;5.15;;;3.40;99.90;;;;;;5004328;28;20318;-85
2021/12/02 07:01:13;;;;;;;8.25;5.32;;;3.40;99.90;;;;;;4988370;28;20409;-83
2021/12/02 07:03:38;;;;;;;10.40;6.45;;;3.40;99.90;;;;;;4990250;28;20533;-82
2021/12/02 07:06:04;;;;;;;10.07;6.60;;;3.30;99.90;;;;;;5005910;28;20104;-83
2021/12/02 07:08:31;;;;;;;9.10;4.70;;;3.30;99.90;;;;;;4984013;28;20588;-83
2021/12/02 07:10:58;;;;;;;15.85;8.13;;;3.30;99.90;;;;;;4964169;28;20029;-83
2021/12/02 07:13:25;;;;;;;18.42;9.23;;;3.30;99.90;;;;;;4988919;28;20037;-83
2021/12/02 07:15:53;;;;;;;11.65;6.15;;;3.30;99.90;;;;;;4969137;28;20021;-83
2021/12/02 07:18:19;;;;;;;14.73;8.98;;;3.30;99.90;;;;;;4986263;28;20443;-83
2021/12/02 07:20:47;;;;;;;12.18;5.60;;;3.30;99.90;;;;;;4968748;28;20041;-83
2021/12/02 07:23:19;;;;;;;13.25;8.63;;;3.30;99.90;;;;;;4968465;28;20502;-83
2021/12/02 07:25:45;;;;;;;10.95;7.15;;;3.40;99.90;;;;;;4984650;28;20117;-83
2021/12/02 07:28:11;;;;;;;8.20;3.45;;;3.30;99.90;;;;;;4973060;28;20041;-83
2021/12/02 07:30:37;;;;;;;16.63;9.43;;;3.40;99.90;;;;;;5004657;28;20325;-83
2021/12/02 07:33:03;;;;;;;14.23;8.32;;;3.40;99.90;;;;;;4971683;28;20113;-84
2021/12/02 07:35:28;;;;;;;18.27;10.95;;;3.30;99.90;;;;;;4985607;28;20033;-83
2021/12/02 07:37:56;;;;;;;14.60;9.10;;;3.30;99.90;;;;;;4983674;28;20061;-83
2021/12/02 07:40:22;;;;;;;16.80;10.32;;;3.30;99.90;;;;;;4977447;28;20270;-83
2021/12/02 07:42:51;;;;;;;19.88;12.30;;;3.30;99.90;;;;;;4984027;28;20419;-83
2021/12/02 07:45:17;;;;;;;22.10;13.18;;;3.30;99.90;;;;;;4985748;28;20030;-83
2021/12/02 07:47:43;;;;;;;16.08;8.82;;;3.30;99.90;;;;;;4973738;28;20447;-83
2021/12/02 07:50:11;;;;;;;20.20;11.77;;;3.30;99.90;;;;;;4981639;28;20041;-83
2021/12/02 07:52:40;;;;;;;13.43;9.73;;;3.20;99.90;;;;;;4950345;28;20034;-84
2021/12/02 07:55:09;;;;;;;15.50;9.82;;;3.30;99.90;;;;;;4978350;28;20107;-84
2021/12/02 07:57:35;;;;;;;18.02;9.23;;;3.30;99.90;;;;;;5003949;28;20071;-84
2021/12/02 08:00:01;;;;;;;10.57;7.43;;;3.30;99.90;;;;;;4965809;28;20065;-83
2021/12/02 08:02:32;;;;;;;10.57;7.25;;;3.30;99.90;;;;;;4988390;28;20397;-84
2021/12/02 08:04:58;;;;;;;10.20;7.25;;;3.30;99.90;;;;;;4948656;28;20031;-83
2021/12/02 08:07:23;;;;;;;14.02;7.43;;;3.30;99.90;;;;;;4977085;28;20116;-83
2021/12/02 08:09:49;;;;;;;8.68;6.50;;;3.40;99.90;;;;;;5004649;28;20033;-83
2021/12/02 08:12:14;;;;;;;11.73;6.72;;;3.30;99.90;;;;;;4969062;28;20037;-83
2021/12/02 08:14:40;;;;;;;16.17;6.78;;;3.40;99.90;;;;;;5002654;28;20719;-84
2021/12/02 08:17:05;;;;;;;14.07;5.85;;;3.40;99.90;;;;;;4985687;28;20348;-83
2021/12/02 08:19:31;;;;;;;8.52;5.57;;;3.40;99.90;;;;;;4979839;28;20048;-83
2021/12/02 08:21:57;;;;;;;6.55;5.45;;;3.40;99.90;;;;;;4963650;28;20834;-83
2021/12/02 08:24:24;;;;;;;7.82;5.63;;;3.50;99.90;;;;;;4984286;28;20041;-83
2021/12/02 08:26:49;;;;;;;10.00;5.88;;;3.40;99.90;;;;;;4988508;28;20033;-83
2021/12/02 08:29:15;;;;;;;7.47;4.50;;;3.40;99.90;;;;;;4973221;28;20567;-83
2021/12/02 08:31:40;;;;;;;7.20;4.35;;;3.30;99.90;;;;;;5000969;28;20216;-83
2021/12/02 08:34:06;;;;;;;7.57;4.72;;;3.30;99.90;;;;;;5002858;28;20060;-83
2021/12/02 08:36:42;;;;;;;9.80;5.32;;;3.40;99.90;;;;;;5004435;28;20037;-83
2021/12/02 08:39:10;;;;;;;8.07;4.93;;;3.40;99.90;;;;;;4963444;28;20550;-84
2021/12/02 08:41:39;;;;;;;10.05;5.55;;;3.30;99.90;;;;;;4981108;28;20030;-83
2021/12/02 08:44:05;;;;;;;8.63;5.55;;;3.30;99.90;;;;;;5004497;28;20064;-83
2021/12/02 08:46:30;;;;;;;6.55;5.28;;;3.30;99.90;;;;;;4987090;28;20037;-83
2021/12/02 08:48:56;;;;;;;6.53;3.50;;;3.30;99.90;;;;;;4979251;28;20034;-83
2021/12/02 08:51:24;;;;;;;6.40;3.92;;;3.30;99.90;;;;;;4954342;28;20032;-83
2021/12/02 08:53:49;;;;;;;7.90;4.63;;;3.30;99.90;;;;;;4986651;28;20099;-83
2021/12/02 08:56:18;;;;;;;9.05;4.80;;;3.30;99.90;;;;;;4958674;28;20426;-80
2021/12/02 08:58:51;;;;;;;7.60;4.95;;;3.30;99.90;;;;;;4967925;28;20254;-80
2021/12/02 09:01:17;;;;;;;7.63;5.25;;;3.40;99.90;;;;;;4986291;28;20144;-80
2021/12/02 09:03:43;;;;;;;11.55;5.30;;;3.30;99.90;;;;;;4983310;28;20132;-80
2021/12/02 09:06:12;;;;;;;8.35;5.15;;;3.30;99.90;;;;;;4983989;28;20076;-80
2021/12/02 09:08:41;;;;;;;8.55;4.53;;;3.40;99.90;;;;;;5002167;28;20038;-80
2021/12/02 09:11:07;;;;;;;6.00;3.42;;;3.50;99.90;;;;;;4986190;28;20030;-80
2021/12/02 09:13:32;;;;;;;7.40;4.18;;;3.40;99.90;;;;;;4983342;28;20429;-80
2021/12/02 09:15:58;;;;;;;5.63;3.95;;;3.50;99.90;;;;;;4989133;28;20026;-80
2021/12/02 09:18:24;;;;;;;12.15;5.93;;;3.50;99.90;;;;;;4986168;28;20049;-80
2021/12/02 09:20:49;;;;;;;13.02;6.85;;;3.60;99.90;;;;;;4986033;28;20278;-80
2021/12/02 09:23:15;;;;;;;11.90;6.30;;;3.60;99.90;;;;;;5002210;28;20477;-80
2021/12/02 09:25:41;;;;;;;14.75;6.45;;;3.60;99.90;;;;;;4984781;28;20033;-80
2021/12/02 09:28:07;;;;;;;10.38;5.53;;;3.70;99.90;;;;;;4986873;28;20397;-80
2021/12/02 09:30:32;;;;;;;11.20;6.63;;;3.70;99.90;;;;;;4979755;28;20042;-80
2021/12/02 09:33:01;;;;;;;13.40;8.00;;;3.70;99.90;;;;;;4978346;28;20030;-80
2021/12/02 09:35:26;;;;;;;9.07;6.72;;;3.60;99.90;;;;;;4985686;28;20148;-80
2021/12/02 09:37:52;;;;;;;13.20;8.20;;;3.70;99.90;;;;;;4969869;28;20367;-79
2021/12/02 09:40:17;;;;;;;12.00;8.07;;;3.60;99.90;;;;;;4968161;28;20128;-80
2021/12/02 09:42:43;;;;;;;13.02;8.75;;;3.60;99.90;;;;;;4984083;28;20037;-80
2021/12/02 09:45:09;;;;;;;17.00;6.03;;;3.60;99.90;;;;;;4981197;28;20033;-79
2021/12/02 09:47:38;;;;;;;13.57;9.02;;;3.70;99.90;;;;;;5003209;28;20446;-80
2021/12/02 09:50:08;;;;;;;11.88;6.82;;;3.70;99.90;;;;;;5000129;28;20037;-79
2021/12/02 09:52:39;;;;;;;9.73;6.57;;;3.70;99.90;;;;;;4969329;28;20033;-80
2021/12/02 09:55:58;;;;;;;14.93;7.65;;;3.70;99.90;;;;;;5001754;28;20042;-80
2021/12/02 09:57:57;;;;;;;14.43;7.32;;;3.70;99.90;;;;;;4993743;28;20116;-80
2021/12/02 10:00:30;;;;;;;8.38;4.68;;;3.70;99.90;;;;;;4961190;28;20052;-80
2021/12/02 10:03:04;;;;;;;8.27;3.78;;;3.80;99.90;;;;;;4967393;28;20026;-80
2021/12/02 10:05:56;;;;;;;4.47;3.47;;;3.70;99.90;;;;;;4970454;28;20029;-80
2021/12/02 10:08:25;;;;;;;5.28;3.90;;;3.70;99.90;;;;;;5003477;28;20027;-80
2021/12/02 10:10:54;;;;;;;4.20;2.80;;;3.80;99.90;;;;;;5000739;28;20033;-80
2021/12/02 10:16:07;;;;;;;7.63;4.00;;;3.80;99.90;;;;;;4984014;28;20049;-80
2021/12/02 10:18:40;;;;;;;6.50;4.20;;;3.90;99.90;;;;;;5014770;28;20037;-79
2021/12/02 10:21:18;;;;;;;4.68;3.50;;;4.00;99.90;;;;;;4983076;28;20640;-80
2021/12/02 10:23:47;;;;;;;5.75;3.88;;;4.00;99.90;;;;;;4972468;28;20029;-79
2021/12/02 10:26:13;;;;;;;6.88;4.93;;;4.00;99.90;;;;;;4976757;28;20032;-79
2021/12/02 10:28:42;;;;;;;5.43;2.25;;;4.10;99.90;;;;;;4971220;28;20495;-80
2021/12/02 10:31:08;;;;;;;6.15;3.45;;;4.10;99.90;;;;;;4964876;28;20040;-80
2021/12/02 10:33:40;;;;;;;6.85;4.85;;;4.10;99.90;;;;;;4968511;28;20486;-80
2021/12/02 10:36:27;;;;;;;8.27;4.60;;;4.10;99.90;;;;;;4985533;28;20026;-80
2021/12/02 10:38:54;;;;;;;9.73;4.53;;;4.10;99.90;;;;;;4976006;28;20033;-80
2021/12/02 10:41:21;;;;;;;9.10;5.22;;;4.10;99.90;;;;;;4965294;28;20073;-79
2021/12/02 10:44:17;;;;;;;7.07;4.82;;;4.10;99.90;;;;;;4971335;28;20041;-79
2021/12/02 10:47:05;;;;;;;9.68;5.50;;;4.10;99.90;;;;;;4995443;28;20514;-79
2021/12/02 10:49:44;;;;;;;11.13;5.05;;;4.00;99.90;;;;;;5001550;28;20076;-79
2021/12/02 10:52:17;;;;;;;7.55;4.95;;;4.10;99.90;;;;;;4993759;28;20039;-79
2021/12/02 10:54:47;;;;;;;8.70;6.10;;;4.10;99.90;;;;;;4984577;28;20405;-79
2021/12/02 10:57:20;;;;;;;11.38;5.55;;;4.10;99.90;;;;;;4986513;28;20126;-79
2021/12/02 10:59:48;;;;;;;7.57;5.53;;;4.10;99.90;;;;;;4972479;28;21046;-79
2021/12/02 11:02:20;;;;;;;8.13;5.43;;;4.10;99.90;;;;;;4986348;28;20694;-80
2021/12/02 11:05:11;;;;;;;7.78;4.30;;;4.10;99.90;;;;;;5004765;28;20072;-79
2021/12/02 11:07:41;;;;;;;12.27;6.93;;;4.20;99.90;;;;;;4983952;28;20064;-80
2021/12/02 11:10:11;;;;;;;9.93;4.88;;;4.20;99.90;;;;;;4988658;28;20548;-80
2021/12/02 11:12:44;;;;;;;10.77;6.05;;;4.20;99.90;;;;;;4987295;28;20196;-80
2021/12/02 11:15:09;;;;;;;9.55;5.10;;;4.20;99.90;;;;;;4987065;28;20049;-80
2021/12/02 11:17:41;;;;;;;7.10;4.30;;;4.30;99.90;;;;;;5001315;28;20073;-80
2021/12/02 11:20:09;;;;;;;7.93;5.60;;;4.30;99.90;;;;;;4979606;28;20037;-80
2021/12/02 11:22:35;;;;;;;7.68;5.70;;;4.30;99.90;;;;;;4947873;28;20058;-80
2021/12/02 11:25:02;;;;;;;8.60;5.15;;;4.30;99.90;;;;;;4999871;28;20061;-80
2021/12/02 11:27:39;;;;;;;7.60;4.25;;;4.40;99.90;;;;;;4985933;28;20336;-80
2021/12/02 11:30:16;;;;;;;7.55;2.85;;;4.40;99.90;;;;;;4987629;28;20412;-80
2021/12/02 11:32:49;;;;;;;7.07;2.30;;;4.50;99.90;;;;;;4982225;28;20072;-79
2021/12/02 11:35:23;;;;;;;6.35;3.30;;;4.40;99.90;;;;;;4987987;28;20025;-79
2021/12/02 11:37:54;;;;;;;3.45;1.95;;;4.40;99.90;;;;;;4982432;28;20053;-79
2021/12/02 11:40:25;;;;;;;6.10;2.60;;;4.50;99.90;;;;;;4993291;28;20371;-79
2021/12/02 11:42:51;;;;;;;8.75;4.03;;;4.50;99.90;;;;;;4984072;28;20492;-79
2021/12/02 11:45:18;;;;;;;7.10;3.05;;;4.50;99.90;;;;;;4984169;28;22913;-79
2021/12/02 11:47:44;;;;;;;7.20;3.88;;;4.50;99.90;;;;;;5003716;28;20120;-79
2021/12/02 11:50:10;;;;;;;5.95;3.40;;;4.50;99.90;;;;;;5002538;28;20096;-79
2021/12/02 11:52:37;;;;;;;6.60;3.28;;;4.50;99.90;;;;;;4993926;28;20048;-79
2021/12/02 11:55:05;;;;;;;9.88;5.15;;;4.50;99.90;;;;;;4970318;28;20064;-79
2021/12/02 11:57:33;;;;;;;13.27;5.63;;;4.40;99.90;;;;;;5003047;28;20033;-79
2021/12/02 11:59:59;;;;;;;19.08;5.97;;;4.50;99.90;;;;;;4984752;28;20029;-79
2021/12/02 12:02:24;;;;;;;8.98;6.10;;;4.50;99.90;;;;;;4988100;28;20033;-79
2021/12/02 12:04:59;;;;;;;9.40;4.55;;;4.50;99.90;;;;;;4983401;28;20065;-79
2021/12/02 12:07:28;;;;;;;10.75;4.60;;;4.50;99.90;;;;;;4982601;28;20065;-79
2021/12/02 12:10:14;;;;;;;9.77;4.80;;;4.40;99.90;;;;;;4984286;28;20087;-79
2021/12/02 12:12:43;;;;;;;6.20;3.75;;;4.40;99.90;;;;;;4987030;28;20041;-80
2021/12/02 12:15:41;;;;;;;9.70;5.43;;;4.40;99.90;;;;;;4981605;28;20174;-80
2021/12/02 12:18:07;;;;;;;10.63;5.88;;;4.50;99.90;;;;;;5001577;28;20397;-80
2021/12/02 12:20:56;;;;;;;9.38;5.35;;;4.40;99.90;;;;;;4965377;28;20034;-80
2021/12/02 12:23:41;;;;;;;7.03;4.85;;;4.30;99.90;;;;;;5004098;28;20038;-80
2021/12/02 12:26:11;;;;;;;7.83;5.57;;;4.30;99.90;;;;;;4970588;28;20026;-80
2021/12/02 12:29:08;;;;;;;10.85;5.57;;;4.30;99.90;;;;;;5002069;28;20264;-80
2021/12/02 12:31:49;;;;;;;7.97;4.75;;;4.20;99.90;;;;;;4996546;28;20875;-80
2021/12/02 12:34:47;;;;;;;12.63;5.78;;;4.20;99.90;;;;;;4991255;28;20045;-80
2021/12/02 12:37:13;;;;;;;7.05;4.93;;;4.20;99.90;;;;;;5019499;28;20402;-80
2021/12/02 12:39:39;;;;;;;10.70;3.38;;;4.10;99.90;;;;;;5006012;28;20045;-80
2021/12/02 12:42:11;;;;;;;7.03;3.47;;;4.10;99.90;;;;;;4987307;28;20041;-80
2021/12/02 12:44:56;;;;;;;6.15;3.47;;;4.10;99.90;;;;;;5014222;28;20034;-80
2021/12/02 12:47:47;;;;;;;6.53;4.38;;;4.10;99.90;;;;;;4987885;28;20030;-80
2021/12/02 12:50:38;;;;;;;4.80;3.70;;;4.10;99.90;;;;;;5003721;28;20548;-80
2021/12/02 12:53:04;;;;;;;5.28;3.63;;;4.10;99.90;;;;;;5000951;28;20033;-80
2021/12/02 12:55:33;;;;;;;5.25;3.75;;;4.10;99.90;;;;;;4999488;28;20083;-80
2021/12/02 12:58:22;;;;;;;8.85;5.18;;;4.10;99.90;;;;;;4989439;28;20098;-79
2021/12/02 13:00:56;;;;;;;11.30;4.60;;;4.10;99.90;;;;;;5002963;28;20029;-80
2021/12/02 13:03:34;;;;;;;6.28;3.78;;;4.10;99.90;;;;;;4986552;28;20541;-80
2021/12/02 13:06:05;;;;;;;4.47;2.78;;;4.10;99.90;;;;;;4979915;28;20622;-80
2021/12/02 13:08:39;;;;;;;7.38;3.65;;;4.10;99.90;;;;;;4972376;28;20493;-80
2021/12/02 13:11:29;;;;;;;4.63;2.92;;;4.10;99.90;;;;;;4989264;28;20040;-80
2021/12/02 13:13:55;;;;;;;4.47;2.60;;;4.20;99.90;;;;;;5005221;28;20032;-79